Tiempo atmosférico en la estación meteorológica de Cádiz, Cadiz (1 m.)



Fecha
DESCASC
Temp. máxima en grados centígrados (hora)
DESCASC
Temp. mínima en grados centígrados (hora)
DESCASC
Temp. media en grados centígrados
DESCASC
Racha de viento máxima en m/sg (hora)
DESCASC
Velocidad máxima media en intervalos de 10 minutos(hora)
DESCASC
Precipitaciones diarias en mm
DESCASC
Precipitaciones de 00:00 a 06:00 en mm
DESCASC
Precipitaciones de 06:00 a 12:00 en mm
DESCASC
Precipitaciones de 12:00 a 18:00 en mm
DESCASC
Precipitaciones de 18:00 a 24:00 en mm
DESCASC
18-01-2019 14.4 (23:40) 8.7 (06:50) 11.5 6.39 (23:40) 4.44 (23:40) 0 0 0 0 0
17-01-2019 15.2 (14:20) 8.9 (00:00) 12 6.39 (20:50) 3.89 (22:10) 0 0 0 0 0
16-01-2019 15.6 (15:30) 10.4 (00:00) 13 8.61 (14:00) 5 (13:50) 0 0 0 0 0
15-01-2019 17.6 (15:30) 7.8 (00:00) 12.7 5.28 (12:30) 3.33 (12:30) 0 0 0 0 0
14-01-2019 16.2 (14:50) 6.2 (00:00) 11.2 4.72 (00:10) 4.17 (00:10) 0 0 0 0 0
13-01-2019 16.3 (17:10) 6.6 (00:00) 11.4 9.17 (02:00) 7.22 (02:40) 0 0 0 0 0
12-01-2019 15.5 (15:00) 6.7 (00:00) 11.1 11.67 (12:50) 8.33 (13:00) 0 0 0 0 0
11-01-2019 14.2 (17:10) 5.1 (00:00) 9.6 6.94 (14:00) 5.56 (15:10) 0 0 0 0 0
10-01-2019 17.8 (16:10) 8.4 (00:00) 13.1 5 (23:59) 3.89 (23:50) 0 0 0 0 0
09-01-2019 16 (16:20) 6.9 (00:00) 11.5 5.83 (14:50) 4.17 (14:40) 0 0 0 0 0
08-01-2019 16.5 (14:30) 7.1 (00:00) 11.8 4.72 (14:00) 3.61 (15:30) 0 0 0 0 0
07-01-2019 16.3 (15:50) 6.7 (00:00) 11.5 3.89 (17:20) 2.78 (19:10) 0 0 0 0 0
06-01-2019 17.3 (16:30) 6 (00:00) 11.6 5 (18:50) 3.89 (06:10) 0 0 0 0 0
05-01-2019 16.3 (16:40) 8.5 (00:00) 12.4 9.44 (00:10) 7.5 (00:10) 0 0 0 0 0
04-01-2019 17.7 (13:50) 10.2 (00:00) 14 10 (17:40) 7.78 (17:40) 0 0 0 0 0
03-01-2019 18.8 (16:00) 10.8 (00:00) 14.8 8.89 (18:00) 6.67 (18:00) 0.1 0.1 0 0 0
02-01-2019 16.4 (16:10) 7.9 (00:00) 12.1 6.11 (16:50) 3.89 (16:20) 0 0 0 0 0
01-01-2019 18.4 (15:40) 9.9 (00:00) 14.1 5 (00:50) 3.89 (06:40) 0 0 0 0 0
31-12-2018 18 (16:00) 11.5 (00:00) 14.8 13.61 (13:10) 10.28 (13:10) 0 0 0 0 0
30-12-2018 17.5 (14:30) 12.6 (00:00) 15.1 18.61 (09:50) 13.61 (09:20) 0 0 0 0 0
29-12-2018 16.9 (15:50) 8.9 (00:00) 12.9 9.44 (17:20) 6.94 (17:30) 0 0 0 0 0
28-12-2018 16.8 (16:10) 8.1 (00:00) 12.4 7.78 (15:00) 3.89 (18:40) 0 0 0 0 0
27-12-2018 16.8 (15:30) 9.8 (00:00) 13.3 5 (19:50) 3.89 (19:50) 0 0 0 0 0
26-12-2018 18.1 (15:10) 12.5 (00:00) 15.3 8.89 (14:20) 6.67 (15:20) 0 0 0 0 0
25-12-2018 18.7 (16:00) 11.1 (00:00) 14.9 8.89 (20:40) 6.67 (20:30) 0 0 0 0 0
24-12-2018 17.9 (16:20) 9.3 (10:00) 13.6 5 (17:30) 3.33 (17:40) 0 0 0 0 0
23-12-2018 18.3 (13:00) 10.7 (00:00) 14.5 6.11 (02:10) 3.06 (02:10) 0 0 0 0 0
22-12-2018 19.3 (15:00) 10.1 (00:00) 14.7 9.72 (15:30) 6.94 (15:30) 0 0 0 0 0
21-12-2018 19 (15:30) 9.7 (08:10) 14.3 7.78 (16:40) 6.11 (16:10) 0 0 0 0 0

Gráficas

Temp. máximas Temp. mínimas Temp. medias Precipitaciones Rachas de viento máximas Velocidades máximas media en intervalos de 10 minutos

Datos horarios

Fecha y hora oficial Temperatura (ºC) Velocidad del viento (km/h) Dirección del viento Racha (km/h) Dirección de racha Precipitación (mm) Presión (hPa) Tendencia (hPa) Humedad (%)
2019-01-19 23:00:00 14.6 23 Sudoeste 44 Sudoeste 1.8 1014.2 -2.1 90
2019-01-19 22:00:00 14.9 17 Sudoeste 37 Oeste 0.8 1015 -1.6 84
2019-01-19 21:00:00 15.3 20 Oeste 33 Oeste 0.4 1016.2 -0.8 81
2019-01-19 20:00:00 15.6 16 Oeste 30 Oeste 0 1016.3 -1.3 79
2019-01-19 19:00:00 14.7 4 Sudoeste 14 Sudoeste 0.5 1016.6 -1.4 89
2019-01-19 18:00:00 14 9 Sur 15 Sur 0 1017 -1.4 85
2019-01-19 17:00:00 13.6 9 Sur 13 Sur 0 1017.6 -1.8 85
2019-01-19 16:00:00 12.6 4 Sudeste 10 Sudeste 0 1018 -2.5 85
2019-01-19 15:00:00 12.5 5 Sudeste 6 Este 0.2 1018.4 -2.1 84
2019-01-19 14:00:00 12.6 3 Sudeste 6 Nordeste 0 1019.4 -0.7 84
2019-01-19 13:00:00 11.8 3 Norte 6 Nordeste 0 1020.5 1 87
2019-01-19 12:00:00 11.3 5 Norte 12 Norte 0 1020.5 1.7 90
2019-01-19 11:00:00 10.5 10 Norte 13 Norte 0 1020.1 2.1 92
2019-01-19 10:00:00 10.4 8 Noroeste 14 Noroeste 0 1019.5 2.7 93
2019-01-19 09:00:00 10.3 11 Noroeste 20 Noroeste 0 1018.8 2.4 93
2019-01-19 08:00:00 10.2 16 Noroeste 27 Noroeste 0 1018 0.3 92
2019-01-19 07:00:00 12.3 21 Noroeste 32 Noroeste 0.1 1016.8 -2.3 87
2019-01-19 06:00:00 11.9 6 Norte 29 Sudeste 0.8 1016.4 -3.2 94
2019-01-19 05:00:00 10.4 20 Sudeste 26 Sudeste 0.1 1017.7 -2.5 94
2019-01-19 04:00:00 9.9 12 Este 15 Este 0.2 1019.1 -1.2 92
2019-01-19 03:00:00 9.6 7 Nordeste 13 Nordeste 0.8 1019.6 -1 89
2019-01-19 02:00:00 10.7 12 Norte 22 Noroeste 0.4 1020.2 -0.6 84
2019-01-19 01:00:00 13.6 18 Sudoeste 28 Sudoeste 0.2 1020.3 -0.2 63
2019-01-19 00:00:00 13.7 10 Oeste 23 Sudoeste 0 1020.6 0.4 60
2019-01-18 23:00:00 14.2 10 Oeste 19 Oeste 0 1020.8 0.4 57
2019-01-18 22:00:00 14 10 Oeste 20 Oeste 0 1020.5 0.5 54
2019-01-18 21:00:00 13.7 9 Oeste 17 Noroeste 0 1020.2 0.2 60
2019-01-18 20:00:00 13.4 11 Oeste 18 Oeste 0 1020.4 0.5 62
2019-01-18 19:00:00 13.3 10 Noroeste 17 Noroeste 0 1020 0 64
2019-01-18 18:00:00 13.4 15 Noroeste 20 Noroeste 0 1020 -0.2 63
2019-01-18 17:00:00 13.4 14 Noroeste 23 Noroeste 0 1019.9 -0.9 63
2019-01-18 16:00:00 13.8 14 Noroeste 21 Noroeste 0 1020 -1.4 60
2019-01-18 15:00:00 13.7 12 Oeste 18 Noroeste 0 1020.2 -1.5 60
2019-01-18 14:00:00 13.5 5 Noroeste 11 Norte 0 1020.8 -0.3 63
2019-01-18 13:00:00 12.2 8 Noroeste 11 Norte 0 1021.4 0.9 72
2019-01-18 12:00:00 10.9 8 Norte 13 Norte 0 1021.7 1.4 76
2019-01-18 11:00:00 9.6 5 Norte 12 Norte 0 1021.1 1.4 78
2019-01-18 10:00:00 9.2 10 Norte 14 Norte 0 1020.5 1.7 79
2019-01-18 09:00:00 9 6 Norte 14 Norte 0 1020.3 1.8 81
2019-01-18 08:00:00 9.3 11 Norte 15 Norte 0 1019.7 0.8 81
2019-01-18 07:00:00 8.9 8 Norte 14 Nordeste 0 1018.8 -0.1 83
2019-01-18 06:00:00 9.2 12 Norte 17 Nordeste 0 1018.5 -0.4 81
2019-01-18 05:00:00 10 13 Norte 17 Norte 0 1018.9 0 84
2019-01-18 04:00:00 10 8 Norte 16 Norte 0 1018.9 -0.3 85
2019-01-18 03:00:00 10.7 13 Norte 17 Norte 0 1018.9 -0.3 84
2019-01-18 02:00:00 10.8 7 Nordeste 11 Nordeste 0 1018.9 0 81
2019-01-18 01:00:00 11.9 8 Norte 13 Norte 0 1019.2 0.6 78
2019-01-18 00:00:00 12.8 8 Norte 12 Norte 0 1019.2 0.8 76
2019-01-17 23:00:00 13.2 8 Norte 20 Noroeste 0 1018.9 0.8 81
2019-01-17 22:00:00 13.4 14 Noroeste 17 Noroeste 0 1018.6 0.8 75
2019-01-17 21:00:00 13.5 12 Noroeste 23 Noroeste 0 1018.4 1.2 72
2019-01-17 20:00:00 13.4 13 Noroeste 18 Noroeste 0 1018.1 1.1 75
2019-01-17 19:00:00 13.8 9 Oeste 15 Noroeste 0 1017.8 0.4 68
2019-01-17 18:00:00 14.7 5 Oeste 13 Noroeste 0 1017.2 -0.2 63
2019-01-17 17:00:00 14.7 8 Noroeste 15 Noroeste 0 1017 -0.8 68
2019-01-17 16:00:00 14.2 13 Noroeste 19 Noroeste 0 1017.4 -1.3 74
2019-01-17 15:00:00 13.9 12 Noroeste 16 Noroeste 0 1017.4 -1.9 75
2019-01-17 14:00:00 14.5 8 Oeste 12 Oeste 0 1017.8 -1.1 72
2019-01-17 13:00:00 14.4 2 Nordeste 6 Norte 0 1018.7 0 74
2019-01-17 12:00:00 13.7 3 Norte 12 Este 0 1019.3 1.1 75
2019-01-17 11:00:00 11.9 10 Este 14 Este 0 1018.9 1.3 85
2019-01-17 10:00:00 9.3 6 Nordeste 12 Norte 0 1018.7 1.6 91
2019-01-17 09:00:00 9.5 4 Norte 6 Norte 0 1018.2 1.1 91
2019-01-17 08:00:00 9.3 2 Nordeste 6 Norte 0 1017.6 0.4 91
2019-01-17 07:00:00 9.9 4 Norte 9 Norte 0 1017.1 -0.3 91
2019-01-17 06:00:00 10 3 Este 7 Nordeste 0 1017.1 -0.5 90
2019-01-17 05:00:00 10.3 2 Este 5 Este 0 1017.2 -0.7 88
2019-01-17 04:00:00 10.7 3 Nordeste 10 Este 0 1017.4 -1 87
2019-01-17 03:00:00 10.9 10 Sudeste 14 Sudeste 0 1017.6 -1 87
2019-01-17 02:00:00 11 5 Nordeste 9 Este 0 1017.9 -0.7 87
2019-01-17 01:00:00 11.7 6 Este 12 Este 0 1018.4 -0.1 88
2019-01-17 00:00:00 11.7 5 Este 10 Sudeste 0 1018.6 0.3 87
2019-01-16 23:00:00 12.2 9 Sudeste 14 Sudeste 0 1018.6 0.4 85
2019-01-16 22:00:00 12.8 0 Calma 8 Este 0 1018.5 0.5 83
2019-01-16 21:00:00 12.8 5 Este 9 Este 0 1018.3 0.4 81
2019-01-16 20:00:00 13.2 5 Este 11 Sur 0 1018.2 0.4 78
2019-01-16 19:00:00 14 7 Sur 20 Sur 0 1018 0 73
2019-01-16 18:00:00 14.2 11 Sur 21 Sur 0 1017.9 -0.3 69
2019-01-16 17:00:00 15 11 Sur 18 Sur 0 1017.8 -1.1 68
2019-01-16 16:00:00 15 10 Sur 18 Sur 0 1018 -1.7 68
2019-01-16 15:00:00 14.7 9 Sur 30 Sur 0 1018.2 -2.3 71
2019-01-16 14:00:00 14.7 18 Sur 31 Sur 0 1018.9 -1.6 72
2019-01-16 13:00:00 15.1 17 Sur 27 Sur 0 1019.7 -0.4 72